sensor_id;sensor_type;location;lat;lon;timestamp;P1;durP1;ratioP1;P2;durP2;ratioP2
16689;SDS011;8458;52.220;9.884;2022-12-07T00:01:31;19.87;;;18.43;;
16689;SDS011;8458;52.220;9.884;2022-12-07T00:04:01;20.60;;;18.90;;
16689;SDS011;8458;52.220;9.884;2022-12-07T00:06:30;21.73;;;19.70;;
16689;SDS011;8458;52.220;9.884;2022-12-07T00:08:57;20.83;;;19.33;;
16689;SDS011;8458;52.220;9.884;2022-12-07T00:11:23;22.03;;;20.20;;
16689;SDS011;8458;52.220;9.884;2022-12-07T00:13:51;20.43;;;18.93;;
16689;SDS011;8458;52.220;9.884;2022-12-07T00:16:18;22.50;;;20.53;;
16689;SDS011;8458;52.220;9.884;2022-12-07T00:18:46;21.40;;;19.60;;
16689;SDS011;8458;52.220;9.884;2022-12-07T00:21:16;23.07;;;21.03;;
16689;SDS011;8458;52.220;9.884;2022-12-07T00:23:44;22.70;;;20.90;;
16689;SDS011;8458;52.220;9.884;2022-12-07T00:26:13;22.67;;;20.73;;
16689;SDS011;8458;52.220;9.884;2022-12-07T00:28:44;22.50;;;20.40;;
16689;SDS011;8458;52.220;9.884;2022-12-07T00:31:12;23.57;;;19.70;;
16689;SDS011;8458;52.220;9.884;2022-12-07T00:33:39;21.13;;;19.53;;
16689;SDS011;8458;52.220;9.884;2022-12-07T00:36:10;21.67;;;19.97;;
16689;SDS011;8458;52.220;9.884;2022-12-07T00:38:40;21.43;;;19.60;;
16689;SDS011;8458;52.220;9.884;2022-12-07T00:41:07;21.37;;;19.87;;
16689;SDS011;8458;52.220;9.884;2022-12-07T00:43:36;20.27;;;18.87;;
16689;SDS011;8458;52.220;9.884;2022-12-07T00:46:03;20.33;;;18.87;;
16689;SDS011;8458;52.220;9.884;2022-12-07T00:48:30;19.77;;;18.17;;
16689;SDS011;8458;52.220;9.884;2022-12-07T00:50:57;20.27;;;18.77;;
16689;SDS011;8458;52.220;9.884;2022-12-07T00:53:23;19.60;;;18.30;;
16689;SDS011;8458;52.220;9.884;2022-12-07T00:55:52;19.97;;;18.27;;
16689;SDS011;8458;52.220;9.884;2022-12-07T00:58:18;18.30;;;17.03;;
16689;SDS011;8458;52.220;9.884;2022-12-07T01:00:45;19.23;;;17.63;;
16689;SDS011;8458;52.220;9.884;2022-12-07T01:03:12;17.87;;;16.50;;
16689;SDS011;8458;52.220;9.884;2022-12-07T01:05:48;18.03;;;16.83;;
16689;SDS011;8458;52.220;9.884;2022-12-07T01:08:15;19.23;;;17.83;;
16689;SDS011;8458;52.220;9.884;2022-12-07T01:10:42;18.50;;;17.27;;
16689;SDS011;8458;52.220;9.884;2022-12-07T01:13:10;18.63;;;16.97;;
16689;SDS011;8458;52.220;9.884;2022-12-07T01:15:38;17.67;;;16.37;;
16689;SDS011;8458;52.220;9.884;2022-12-07T01:18:05;17.47;;;16.07;;
16689;SDS011;8458;52.220;9.884;2022-12-07T01:20:32;17.13;;;15.93;;
16689;SDS011;8458;52.220;9.884;2022-12-07T01:22:58;15.43;;;14.43;;
16689;SDS011;8458;52.220;9.884;2022-12-07T01:25:24;15.43;;;14.43;;
16689;SDS011;8458;52.220;9.884;2022-12-07T01:27:51;15.07;;;14.07;;
16689;SDS011;8458;52.220;9.884;2022-12-07T01:30:19;14.97;;;14.00;;
16689;SDS011;8458;52.220;9.884;2022-12-07T01:32:45;15.63;;;14.53;;
16689;SDS011;8458;52.220;9.884;2022-12-07T01:35:12;15.17;;;14.23;;
16689;SDS011;8458;52.220;9.884;2022-12-07T01:37:38;15.57;;;14.57;;
16689;SDS011;8458;52.220;9.884;2022-12-07T01:40:05;14.47;;;13.57;;
16689;SDS011;8458;52.220;9.884;2022-12-07T01:42:34;15.07;;;14.07;;
16689;SDS011;8458;52.220;9.884;2022-12-07T01:48:11;16.20;;;15.13;;
16689;SDS011;8458;52.220;9.884;2022-12-07T01:50:41;15.73;;;14.63;;
16689;SDS011;8458;52.220;9.884;2022-12-07T01:53:09;15.37;;;14.37;;
16689;SDS011;8458;52.220;9.884;2022-12-07T01:55:37;17.13;;;15.93;;
16689;SDS011;8458;52.220;9.884;2022-12-07T01:58:06;16.50;;;15.40;;
16689;SDS011;8458;52.220;9.884;2022-12-07T02:00:32;17.23;;;16.13;;
16689;SDS011;8458;52.220;9.884;2022-12-07T02:03:00;17.30;;;16.20;;
16689;SDS011;8458;52.220;9.884;2022-12-07T02:05:32;17.40;;;16.20;;
16689;SDS011;8458;52.220;9.884;2022-12-07T02:08:00;15.93;;;14.93;;
16689;SDS011;8458;52.220;9.884;2022-12-07T02:10:29;16.97;;;15.87;;
16689;SDS011;8458;52.220;9.884;2022-12-07T02:12:57;16.73;;;15.67;;
16689;SDS011;8458;52.220;9.884;2022-12-07T02:15:28;16.13;;;15.13;;
16689;SDS011;8458;52.220;9.884;2022-12-07T02:18:05;16.67;;;15.67;;
16689;SDS011;8458;52.220;9.884;2022-12-07T02:20:37;16.13;;;15.10;;
16689;SDS011;8458;52.220;9.884;2022-12-07T02:23:20;16.47;;;15.47;;
16689;SDS011;8458;52.220;9.884;2022-12-07T02:29:10;16.37;;;15.27;;
16689;SDS011;8458;52.220;9.884;2022-12-07T02:31:43;17.20;;;16.13;;
16689;SDS011;8458;52.220;9.884;2022-12-07T02:34:18;16.23;;;15.23;;
16689;SDS011;8458;52.220;9.884;2022-12-07T02:36:50;17.10;;;15.90;;
16689;SDS011;8458;52.220;9.884;2022-12-07T02:39:22;18.00;;;16.80;;
16689;SDS011;8458;52.220;9.884;2022-12-07T02:41:55;17.30;;;16.10;;
16689;SDS011;8458;52.220;9.884;2022-12-07T02:44:29;17.40;;;16.30;;
16689;SDS011;8458;52.220;9.884;2022-12-07T02:46:58;17.03;;;15.93;;
16689;SDS011;8458;52.220;9.884;2022-12-07T02:49:29;17.90;;;16.70;;
16689;SDS011;8458;52.220;9.884;2022-12-07T02:51:56;17.40;;;16.30;;
16689;SDS011;8458;52.220;9.884;2022-12-07T02:54:23;17.17;;;16.07;;
16689;SDS011;8458;52.220;9.884;2022-12-07T02:56:50;16.57;;;15.57;;
16689;SDS011;8458;52.220;9.884;2022-12-07T02:59:25;17.80;;;16.70;;
16689;SDS011;8458;52.220;9.884;2022-12-07T03:02:02;17.47;;;16.27;;
16689;SDS011;8458;52.220;9.884;2022-12-07T03:04:41;17.50;;;16.40;;
16689;SDS011;8458;52.220;9.884;2022-12-07T03:07:18;18.57;;;17.33;;
16689;SDS011;8458;52.220;9.884;2022-12-07T03:09:52;19.00;;;17.87;;
16689;SDS011;8458;52.220;9.884;2022-12-07T03:12:27;17.83;;;16.63;;
16689;SDS011;8458;52.220;9.884;2022-12-07T03:15:00;18.73;;;17.53;;
16689;SDS011;8458;52.220;9.884;2022-12-07T03:17:32;17.20;;;16.10;;
16689;SDS011;8458;52.220;9.884;2022-12-07T03:20:04;18.53;;;17.33;;
16689;SDS011;8458;52.220;9.884;2022-12-07T03:22:35;17.87;;;16.67;;
16689;SDS011;8458;52.220;9.884;2022-12-07T03:25:06;18.07;;;16.90;;
16689;SDS011;8458;52.220;9.884;2022-12-07T03:27:37;17.77;;;16.57;;
16689;SDS011;8458;52.220;9.884;2022-12-07T03:30:10;17.00;;;15.77;;
16689;SDS011;8458;52.220;9.884;2022-12-07T03:32:41;17.80;;;16.60;;
16689;SDS011;8458;52.220;9.884;2022-12-07T03:35:12;17.77;;;16.43;;
16689;SDS011;8458;52.220;9.884;2022-12-07T03:37:43;17.17;;;15.87;;
16689;SDS011;8458;52.220;9.884;2022-12-07T03:40:14;15.40;;;14.20;;
16689;SDS011;8458;52.220;9.884;2022-12-07T03:42:46;14.73;;;13.73;;
16689;SDS011;8458;52.220;9.884;2022-12-07T03:45:15;14.63;;;13.73;;
16689;SDS011;8458;52.220;9.884;2022-12-07T03:47:43;15.23;;;14.23;;
16689;SDS011;8458;52.220;9.884;2022-12-07T03:50:14;14.37;;;13.37;;
16689;SDS011;8458;52.220;9.884;2022-12-07T03:52:48;14.00;;;13.10;;
16689;SDS011;8458;52.220;9.884;2022-12-07T03:55:23;13.60;;;12.63;;
16689;SDS011;8458;52.220;9.884;2022-12-07T03:57:53;14.07;;;12.87;;
16689;SDS011;8458;52.220;9.884;2022-12-07T04:00:25;12.80;;;12.00;;
16689;SDS011;8458;52.220;9.884;2022-12-07T04:02:52;13.73;;;12.83;;
16689;SDS011;8458;52.220;9.884;2022-12-07T04:05:19;12.57;;;11.77;;
16689;SDS011;8458;52.220;9.884;2022-12-07T04:07:46;12.33;;;11.40;;
16689;SDS011;8458;52.220;9.884;2022-12-07T04:10:12;12.80;;;12.00;;
16689;SDS011;8458;52.220;9.884;2022-12-07T04:12:39;12.67;;;11.77;;
16689;SDS011;8458;52.220;9.884;2022-12-07T04:15:06;12.33;;;11.33;;
16689;SDS011;8458;52.220;9.884;2022-12-07T04:17:35;11.70;;;10.67;;
16689;SDS011;8458;52.220;9.884;2022-12-07T04:20:02;11.73;;;10.83;;
16689;SDS011;8458;52.220;9.884;2022-12-07T04:22:29;11.17;;;10.27;;
16689;SDS011;8458;52.220;9.884;2022-12-07T04:24:56;10.60;;;9.80;;
16689;SDS011;8458;52.220;9.884;2022-12-07T04:27:22;10.90;;;10.10;;
16689;SDS011;8458;52.220;9.884;2022-12-07T04:29:49;10.20;;;9.40;;
16689;SDS011;8458;52.220;9.884;2022-12-07T04:32:15;9.60;;;8.80;;
16689;SDS011;8458;52.220;9.884;2022-12-07T04:34:43;9.80;;;9.10;;
16689;SDS011;8458;52.220;9.884;2022-12-07T04:37:10;10.63;;;9.80;;
16689;SDS011;8458;52.220;9.884;2022-12-07T04:39:36;10.37;;;9.30;;
16689;SDS011;8458;52.220;9.884;2022-12-07T04:42:03;9.70;;;8.97;;
16689;SDS011;8458;52.220;9.884;2022-12-07T04:44:30;9.13;;;8.53;;
16689;SDS011;8458;52.220;9.884;2022-12-07T04:46:56;9.00;;;8.33;;
16689;SDS011;8458;52.220;9.884;2022-12-07T04:49:23;8.80;;;8.20;;
16689;SDS011;8458;52.220;9.884;2022-12-07T04:51:52;8.17;;;7.47;;
16689;SDS011;8458;52.220;9.884;2022-12-07T04:54:18;8.70;;;8.07;;
16689;SDS011;8458;52.220;9.884;2022-12-07T04:56:45;8.43;;;7.83;;
16689;SDS011;8458;52.220;9.884;2022-12-07T04:59:12;8.90;;;8.30;;
16689;SDS011;8458;52.220;9.884;2022-12-07T05:01:39;9.00;;;8.17;;
16689;SDS011;8458;52.220;9.884;2022-12-07T05:04:06;9.17;;;8.47;;
16689;SDS011;8458;52.220;9.884;2022-12-07T05:06:33;7.80;;;7.10;;
16689;SDS011;8458;52.220;9.884;2022-12-07T05:09:02;8.70;;;8.00;;
16689;SDS011;8458;52.220;9.884;2022-12-07T05:11:29;9.03;;;8.33;;
16689;SDS011;8458;52.220;9.884;2022-12-07T05:14:06;8.43;;;7.80;;
16689;SDS011;8458;52.220;9.884;2022-12-07T05:16:34;9.43;;;8.73;;
16689;SDS011;8458;52.220;9.884;2022-12-07T05:19:01;9.03;;;8.23;;
16689;SDS011;8458;52.220;9.884;2022-12-07T05:21:27;8.93;;;8.33;;
16689;SDS011;8458;52.220;9.884;2022-12-07T05:23:54;8.77;;;8.07;;
16689;SDS011;8458;52.220;9.884;2022-12-07T05:26:22;9.20;;;8.27;;
16689;SDS011;8458;52.220;9.884;2022-12-07T05:28:50;8.70;;;8.00;;
16689;SDS011;8458;52.220;9.884;2022-12-07T05:31:17;9.70;;;8.33;;
16689;SDS011;8458;52.220;9.884;2022-12-07T05:33:43;9.50;;;8.47;;
16689;SDS011;8458;52.220;9.884;2022-12-07T05:36:10;9.63;;;8.70;;
16689;SDS011;8458;52.220;9.884;2022-12-07T05:38:36;8.57;;;7.87;;
16689;SDS011;8458;52.220;9.884;2022-12-07T05:41:03;8.90;;;8.17;;
16689;SDS011;8458;52.220;9.884;2022-12-07T05:43:32;9.47;;;8.70;;
16689;SDS011;8458;52.220;9.884;2022-12-07T05:45:59;8.90;;;8.20;;
16689;SDS011;8458;52.220;9.884;2022-12-07T05:48:26;9.17;;;8.47;;
16689;SDS011;8458;52.220;9.884;2022-12-07T05:50:52;9.60;;;8.70;;
16689;SDS011;8458;52.220;9.884;2022-12-07T05:53:19;9.47;;;8.67;;
16689;SDS011;8458;52.220;9.884;2022-12-07T05:55:46;10.10;;;9.20;;
16689;SDS011;8458;52.220;9.884;2022-12-07T05:58:12;9.73;;;8.53;;
16689;SDS011;8458;52.220;9.884;2022-12-07T06:00:58;11.50;;;8.83;;
16689;SDS011;8458;52.220;9.884;2022-12-07T06:03:24;10.23;;;8.60;;
16689;SDS011;8458;52.220;9.884;2022-12-07T06:05:51;8.13;;;7.40;;
16689;SDS011;8458;52.220;9.884;2022-12-07T06:08:18;9.13;;;8.43;;
16689;SDS011;8458;52.220;9.884;2022-12-07T06:10:46;9.73;;;8.93;;
16689;SDS011;8458;52.220;9.884;2022-12-07T06:13:33;8.40;;;7.70;;
16689;SDS011;8458;52.220;9.884;2022-12-07T06:16:00;8.70;;;8.00;;
16689;SDS011;8458;52.220;9.884;2022-12-07T06:18:26;8.93;;;8.13;;
16689;SDS011;8458;52.220;9.884;2022-12-07T06:20:53;8.63;;;7.43;;
16689;SDS011;8458;52.220;9.884;2022-12-07T06:23:19;7.97;;;7.27;;
16689;SDS011;8458;52.220;9.884;2022-12-07T06:25:46;7.23;;;6.60;;
16689;SDS011;8458;52.220;9.884;2022-12-07T06:28:12;5.73;;;5.23;;
16689;SDS011;8458;52.220;9.884;2022-12-07T06:30:39;5.63;;;5.03;;
16689;SDS011;8458;52.220;9.884;2022-12-07T06:33:06;6.30;;;4.77;;
16689;SDS011;8458;52.220;9.884;2022-12-07T06:35:33;4.80;;;4.40;;
16689;SDS011;8458;52.220;9.884;2022-12-07T06:38:00;4.43;;;4.03;;
16689;SDS011;8458;52.220;9.884;2022-12-07T06:40:26;4.97;;;4.00;;
16689;SDS011;8458;52.220;9.884;2022-12-07T06:42:52;5.80;;;4.30;;
16689;SDS011;8458;52.220;9.884;2022-12-07T06:45:19;5.27;;;4.77;;
16689;SDS011;8458;52.220;9.884;2022-12-07T06:47:45;5.43;;;4.80;;
16689;SDS011;8458;52.220;9.884;2022-12-07T06:50:13;4.60;;;4.13;;
16689;SDS011;8458;52.220;9.884;2022-12-07T06:52:40;4.87;;;4.47;;
16689;SDS011;8458;52.220;9.884;2022-12-07T06:55:06;5.57;;;3.90;;
16689;SDS011;8458;52.220;9.884;2022-12-07T06:57:33;5.30;;;4.40;;
16689;SDS011;8458;52.220;9.884;2022-12-07T07:00:00;5.27;;;4.80;;
16689;SDS011;8458;52.220;9.884;2022-12-07T07:02:26;5.30;;;4.80;;
16689;SDS011;8458;52.220;9.884;2022-12-07T07:04:53;5.00;;;4.50;;
16689;SDS011;8458;52.220;9.884;2022-12-07T07:07:21;4.37;;;3.97;;
16689;SDS011;8458;52.220;9.884;2022-12-07T07:09:47;4.20;;;3.73;;
16689;SDS011;8458;52.220;9.884;2022-12-07T07:12:13;5.83;;;4.40;;
16689;SDS011;8458;52.220;9.884;2022-12-07T07:14:40;4.97;;;4.33;;
16689;SDS011;8458;52.220;9.884;2022-12-07T07:17:06;4.90;;;3.93;;
16689;SDS011;8458;52.220;9.884;2022-12-07T07:19:33;4.20;;;3.90;;
16689;SDS011;8458;52.220;9.884;2022-12-07T07:21:59;3.97;;;3.53;;
16689;SDS011;8458;52.220;9.884;2022-12-07T07:24:27;5.23;;;3.37;;
16689;SDS011;8458;52.220;9.884;2022-12-07T07:26:54;4.90;;;3.80;;
16689;SDS011;8458;52.220;9.884;2022-12-07T07:29:20;4.60;;;3.67;;
16689;SDS011;8458;52.220;9.884;2022-12-07T07:31:47;3.97;;;3.00;;
16689;SDS011;8458;52.220;9.884;2022-12-07T07:34:13;4.57;;;3.03;;
16689;SDS011;8458;52.220;9.884;2022-12-07T07:36:40;3.10;;;2.83;;
16689;SDS011;8458;52.220;9.884;2022-12-07T07:39:06;3.93;;;2.50;;
16689;SDS011;8458;52.220;9.884;2022-12-07T07:41:34;3.23;;;2.30;;
16689;SDS011;8458;52.220;9.884;2022-12-07T07:44:00;2.77;;;2.57;;
16689;SDS011;8458;52.220;9.884;2022-12-07T07:46:27;4.50;;;2.40;;
16689;SDS011;8458;52.220;9.884;2022-12-07T07:48:53;2.33;;;2.13;;
16689;SDS011;8458;52.220;9.884;2022-12-07T07:51:20;2.70;;;1.97;;
16689;SDS011;8458;52.220;9.884;2022-12-07T07:53:46;2.43;;;2.00;;
16689;SDS011;8458;52.220;9.884;2022-12-07T07:56:13;4.47;;;2.00;;
16689;SDS011;8458;52.220;9.884;2022-12-07T07:58:40;2.83;;;1.97;;
16689;SDS011;8458;52.220;9.884;2022-12-07T08:01:07;2.17;;;1.80;;
16689;SDS011;8458;52.220;9.884;2022-12-07T08:03:33;2.83;;;1.90;;
16689;SDS011;8458;52.220;9.884;2022-12-07T08:06:01;3.33;;;1.90;;
16689;SDS011;8458;52.220;9.884;2022-12-07T08:08:28;2.90;;;1.40;;
16689;SDS011;8458;52.220;9.884;2022-12-07T08:10:54;7.80;;;1.77;;
16689;SDS011;8458;52.220;9.884;2022-12-07T08:13:20;2.63;;;1.57;;
16689;SDS011;8458;52.220;9.884;2022-12-07T08:15:48;3.50;;;1.83;;
16689;SDS011;8458;52.220;9.884;2022-12-07T08:18:15;2.40;;;1.27;;
16689;SDS011;8458;52.220;9.884;2022-12-07T08:20:41;4.07;;;1.60;;
16689;SDS011;8458;52.220;9.884;2022-12-07T08:23:08;1.93;;;1.30;;
16689;SDS011;8458;52.220;9.884;2022-12-07T08:25:36;3.03;;;1.37;;
16689;SDS011;8458;52.220;9.884;2022-12-07T08:28:02;1.50;;;1.20;;
16689;SDS011;8458;52.220;9.884;2022-12-07T08:30:30;2.73;;;1.50;;
16689;SDS011;8458;52.220;9.884;2022-12-07T08:32:58;2.80;;;1.30;;
16689;SDS011;8458;52.220;9.884;2022-12-07T08:35:25;3.13;;;1.20;;
16689;SDS011;8458;52.220;9.884;2022-12-07T08:37:51;3.13;;;1.20;;
16689;SDS011;8458;52.220;9.884;2022-12-07T08:40:18;1.30;;;0.93;;
16689;SDS011;8458;52.220;9.884;2022-12-07T08:42:48;2.97;;;0.97;;
16689;SDS011;8458;52.220;9.884;2022-12-07T08:45:15;1.90;;;1.03;;
16689;SDS011;8458;52.220;9.884;2022-12-07T08:47:44;2.63;;;1.30;;
16689;SDS011;8458;52.220;9.884;2022-12-07T08:50:14;1.77;;;1.00;;
16689;SDS011;8458;52.220;9.884;2022-12-07T08:52:40;3.03;;;1.03;;
16689;SDS011;8458;52.220;9.884;2022-12-07T08:55:09;2.10;;;0.93;;
16689;SDS011;8458;52.220;9.884;2022-12-07T08:57:37;3.33;;;1.00;;
16689;SDS011;8458;52.220;9.884;2022-12-07T09:00:05;2.57;;;0.97;;
16689;SDS011;8458;52.220;9.884;2022-12-07T09:02:33;2.60;;;1.00;;
16689;SDS011;8458;52.220;9.884;2022-12-07T09:04:59;2.80;;;0.90;;
16689;SDS011;8458;52.220;9.884;2022-12-07T09:07:27;1.93;;;0.80;;
16689;SDS011;8458;52.220;9.884;2022-12-07T09:09:55;2.53;;;0.90;;
16689;SDS011;8458;52.220;9.884;2022-12-07T09:12:21;1.50;;;0.90;;
16689;SDS011;8458;52.220;9.884;2022-12-07T09:14:48;2.57;;;1.00;;
16689;SDS011;8458;52.220;9.884;2022-12-07T09:17:14;2.63;;;1.00;;
16689;SDS011;8458;52.220;9.884;2022-12-07T09:19:40;3.97;;;1.17;;
16689;SDS011;8458;52.220;9.884;2022-12-07T09:22:07;2.07;;;1.00;;
16689;SDS011;8458;52.220;9.884;2022-12-07T09:24:35;2.73;;;1.50;;
16689;SDS011;8458;52.220;9.884;2022-12-07T09:27:02;2.40;;;0.90;;
16689;SDS011;8458;52.220;9.884;2022-12-07T09:29:28;2.17;;;1.10;;
16689;SDS011;8458;52.220;9.884;2022-12-07T09:31:55;3.23;;;1.00;;
16689;SDS011;8458;52.220;9.884;2022-12-07T09:34:21;2.47;;;0.80;;
16689;SDS011;8458;52.220;9.884;2022-12-07T09:36:48;2.57;;;0.90;;
16689;SDS011;8458;52.220;9.884;2022-12-07T09:39:14;1.97;;;0.80;;
16689;SDS011;8458;52.220;9.884;2022-12-07T09:41:42;1.87;;;0.70;;
16689;SDS011;8458;52.220;9.884;2022-12-07T09:44:11;2.20;;;0.80;;
16689;SDS011;8458;52.220;9.884;2022-12-07T09:46:40;2.07;;;0.70;;
16689;SDS011;8458;52.220;9.884;2022-12-07T09:49:09;2.13;;;0.80;;
16689;SDS011;8458;52.220;9.884;2022-12-07T09:51:40;2.57;;;0.67;;
16689;SDS011;8458;52.220;9.884;2022-12-07T09:54:07;2.20;;;0.60;;
16689;SDS011;8458;52.220;9.884;2022-12-07T09:56:37;1.50;;;0.80;;
16689;SDS011;8458;52.220;9.884;2022-12-07T09:59:05;1.63;;;0.80;;
16689;SDS011;8458;52.220;9.884;2022-12-07T10:01:33;2.60;;;0.77;;
16689;SDS011;8458;52.220;9.884;2022-12-07T10:04:01;2.93;;;0.90;;
16689;SDS011;8458;52.220;9.884;2022-12-07T10:06:35;1.87;;;0.80;;
16689;SDS011;8458;52.220;9.884;2022-12-07T10:09:02;2.10;;;0.60;;
16689;SDS011;8458;52.220;9.884;2022-12-07T10:11:34;3.37;;;0.80;;
16689;SDS011;8458;52.220;9.884;2022-12-07T10:14:11;1.87;;;0.80;;
16689;SDS011;8458;52.220;9.884;2022-12-07T10:16:39;1.77;;;0.67;;
16689;SDS011;8458;52.220;9.884;2022-12-07T10:19:20;1.73;;;0.50;;
16689;SDS011;8458;52.220;9.884;2022-12-07T10:21:59;1.43;;;0.60;;
16689;SDS011;8458;52.220;9.884;2022-12-07T10:24:30;2.13;;;0.90;;
16689;SDS011;8458;52.220;9.884;2022-12-07T10:26:56;2.87;;;0.90;;
16689;SDS011;8458;52.220;9.884;2022-12-07T10:29:28;2.33;;;0.90;;
16689;SDS011;8458;52.220;9.884;2022-12-07T10:31:57;1.00;;;0.80;;
16689;SDS011;8458;52.220;9.884;2022-12-07T10:34:26;1.47;;;0.50;;
16689;SDS011;8458;52.220;9.884;2022-12-07T10:37:06;1.33;;;0.70;;
16689;SDS011;8458;52.220;9.884;2022-12-07T10:39:40;1.00;;;0.60;;
16689;SDS011;8458;52.220;9.884;2022-12-07T10:42:15;1.30;;;0.70;;
16689;SDS011;8458;52.220;9.884;2022-12-07T10:44:44;2.23;;;0.67;;
16689;SDS011;8458;52.220;9.884;2022-12-07T10:47:19;1.87;;;0.70;;
16689;SDS011;8458;52.220;9.884;2022-12-07T10:50:07;1.90;;;0.80;;
16689;SDS011;8458;52.220;9.884;2022-12-07T10:52:56;1.83;;;0.60;;
16689;SDS011;8458;52.220;9.884;2022-12-07T10:55:33;1.37;;;0.67;;
16689;SDS011;8458;52.220;9.884;2022-12-07T11:00:58;2.07;;;0.70;;
16689;SDS011;8458;52.220;9.884;2022-12-07T11:03:43;2.03;;;0.60;;
16689;SDS011;8458;52.220;9.884;2022-12-07T11:06:22;2.23;;;0.60;;
16689;SDS011;8458;52.220;9.884;2022-12-07T11:09:00;2.43;;;0.70;;
16689;SDS011;8458;52.220;9.884;2022-12-07T11:11:49;1.27;;;0.60;;
16689;SDS011;8458;52.220;9.884;2022-12-07T11:14:24;3.17;;;0.60;;
16689;SDS011;8458;52.220;9.884;2022-12-07T11:16:58;2.23;;;0.57;;
16689;SDS011;8458;52.220;9.884;2022-12-07T11:19:34;3.63;;;0.90;;
16689;SDS011;8458;52.220;9.884;2022-12-07T11:22:18;3.13;;;0.60;;
16689;SDS011;8458;52.220;9.884;2022-12-07T11:24:49;1.90;;;0.97;;
16689;SDS011;8458;52.220;9.884;2022-12-07T11:27:24;3.10;;;0.80;;
16689;SDS011;8458;52.220;9.884;2022-12-07T11:30:13;1.80;;;1.03;;
16689;SDS011;8458;52.220;9.884;2022-12-07T11:32:53;1.57;;;0.90;;
16689;SDS011;8458;52.220;9.884;2022-12-07T11:35:31;1.10;;;0.80;;
16689;SDS011;8458;52.220;9.884;2022-12-07T11:38:08;1.83;;;1.00;;
16689;SDS011;8458;52.220;9.884;2022-12-07T11:40:39;2.30;;;1.30;;
16689;SDS011;8458;52.220;9.884;2022-12-07T11:43:12;2.60;;;1.03;;
16689;SDS011;8458;52.220;9.884;2022-12-07T11:45:45;4.03;;;1.20;;
16689;SDS011;8458;52.220;9.884;2022-12-07T11:48:17;2.23;;;1.00;;
16689;SDS011;8458;52.220;9.884;2022-12-07T11:50:50;3.57;;;1.23;;
16689;SDS011;8458;52.220;9.884;2022-12-07T11:53:20;3.03;;;1.47;;
16689;SDS011;8458;52.220;9.884;2022-12-07T11:55:52;3.03;;;1.40;;
16689;SDS011;8458;52.220;9.884;2022-12-07T11:58:35;4.53;;;1.60;;
16689;SDS011;8458;52.220;9.884;2022-12-07T12:01:11;3.87;;;1.70;;
16689;SDS011;8458;52.220;9.884;2022-12-07T12:03:49;2.87;;;1.50;;
16689;SDS011;8458;52.220;9.884;2022-12-07T12:06:17;2.83;;;1.90;;
16689;SDS011;8458;52.220;9.884;2022-12-07T12:08:46;3.07;;;1.90;;
16689;SDS011;8458;52.220;9.884;2022-12-07T12:11:19;0.90;;;0.80;;
16689;SDS011;8458;52.220;9.884;2022-12-07T12:14:06;1.60;;;0.80;;
16689;SDS011;8458;52.220;9.884;2022-12-07T12:17:04;1.17;;;0.80;;
16689;SDS011;8458;52.220;9.884;2022-12-07T12:19:54;3.43;;;1.40;;
16689;SDS011;8458;52.220;9.884;2022-12-07T12:22:28;4.03;;;2.10;;
16689;SDS011;8458;52.220;9.884;2022-12-07T12:25:02;3.30;;;1.90;;
16689;SDS011;8458;52.220;9.884;2022-12-07T12:27:31;3.90;;;1.40;;
16689;SDS011;8458;52.220;9.884;2022-12-07T12:30:00;1.83;;;1.03;;
16689;SDS011;8458;52.220;9.884;2022-12-07T12:32:32;3.57;;;1.30;;
16689;SDS011;8458;52.220;9.884;2022-12-07T12:40:53;2.87;;;1.50;;
16689;SDS011;8458;52.220;9.884;2022-12-07T12:46:45;2.40;;;0.90;;
16689;SDS011;8458;52.220;9.884;2022-12-07T12:55:17;3.00;;;0.90;;
16689;SDS011;8458;52.220;9.884;2022-12-07T12:57:47;2.20;;;0.90;;
16689;SDS011;8458;52.220;9.884;2022-12-07T13:00:34;3.00;;;1.13;;
16689;SDS011;8458;52.220;9.884;2022-12-07T13:03:00;3.33;;;1.10;;
16689;SDS011;8458;52.220;9.884;2022-12-07T13:05:28;4.67;;;0.93;;
16689;SDS011;8458;52.220;9.884;2022-12-07T13:07:56;3.00;;;1.50;;
16689;SDS011;8458;52.220;9.884;2022-12-07T13:10:32;4.57;;;1.00;;
16689;SDS011;8458;52.220;9.884;2022-12-07T13:13:02;4.97;;;1.57;;
16689;SDS011;8458;52.220;9.884;2022-12-07T13:15:31;4.67;;;1.33;;
16689;SDS011;8458;52.220;9.884;2022-12-07T13:18:01;3.57;;;1.40;;
16689;SDS011;8458;52.220;9.884;2022-12-07T13:20:46;2.87;;;1.50;;
16689;SDS011;8458;52.220;9.884;2022-12-07T13:23:16;4.17;;;1.27;;
16689;SDS011;8458;52.220;9.884;2022-12-07T13:25:49;3.27;;;1.50;;
16689;SDS011;8458;52.220;9.884;2022-12-07T13:28:20;3.97;;;0.93;;
16689;SDS011;8458;52.220;9.884;2022-12-07T13:30:55;3.27;;;1.30;;
16689;SDS011;8458;52.220;9.884;2022-12-07T13:33:30;3.43;;;1.63;;
16689;SDS011;8458;52.220;9.884;2022-12-07T13:35:57;2.93;;;0.90;;
16689;SDS011;8458;52.220;9.884;2022-12-07T13:38:26;2.80;;;1.00;;
16689;SDS011;8458;52.220;9.884;2022-12-07T13:41:00;2.07;;;0.90;;
16689;SDS011;8458;52.220;9.884;2022-12-07T13:43:31;2.40;;;1.10;;
16689;SDS011;8458;52.220;9.884;2022-12-07T13:45:58;3.73;;;1.00;;
16689;SDS011;8458;52.220;9.884;2022-12-07T13:48:27;1.90;;;0.83;;
16689;SDS011;8458;52.220;9.884;2022-12-07T13:50:58;3.03;;;1.20;;
16689;SDS011;8458;52.220;9.884;2022-12-07T13:53:26;3.37;;;1.10;;
16689;SDS011;8458;52.220;9.884;2022-12-07T13:55:55;2.83;;;0.80;;
16689;SDS011;8458;52.220;9.884;2022-12-07T13:58:33;3.10;;;0.90;;
16689;SDS011;8458;52.220;9.884;2022-12-07T14:01:00;3.83;;;1.10;;
16689;SDS011;8458;52.220;9.884;2022-12-07T14:03:28;2.47;;;0.83;;
16689;SDS011;8458;52.220;9.884;2022-12-07T14:06:04;3.27;;;1.10;;
16689;SDS011;8458;52.220;9.884;2022-12-07T14:08:32;3.27;;;1.10;;
16689;SDS011;8458;52.220;9.884;2022-12-07T14:10:59;3.67;;;1.40;;
16689;SDS011;8458;52.220;9.884;2022-12-07T14:13:29;2.70;;;1.07;;
16689;SDS011;8458;52.220;9.884;2022-12-07T14:15:58;2.67;;;1.30;;
16689;SDS011;8458;52.220;9.884;2022-12-07T14:18:26;2.90;;;1.10;;
16689;SDS011;8458;52.220;9.884;2022-12-07T14:21:02;2.70;;;1.20;;
16689;SDS011;8458;52.220;9.884;2022-12-07T14:23:30;4.47;;;1.33;;
16689;SDS011;8458;52.220;9.884;2022-12-07T14:26:04;3.00;;;1.30;;
16689;SDS011;8458;52.220;9.884;2022-12-07T14:28:35;1.83;;;1.23;;
16689;SDS011;8458;52.220;9.884;2022-12-07T14:31:03;3.00;;;1.03;;
16689;SDS011;8458;52.220;9.884;2022-12-07T14:33:34;3.43;;;1.00;;
16689;SDS011;8458;52.220;9.884;2022-12-07T14:36:00;4.67;;;1.30;;
16689;SDS011;8458;52.220;9.884;2022-12-07T14:38:27;2.33;;;1.07;;
16689;SDS011;8458;52.220;9.884;2022-12-07T14:40:53;4.03;;;1.37;;
16689;SDS011;8458;52.220;9.884;2022-12-07T14:43:43;4.30;;;1.27;;
16689;SDS011;8458;52.220;9.884;2022-12-07T14:46:09;3.40;;;1.30;;
16689;SDS011;8458;52.220;9.884;2022-12-07T14:48:36;4.13;;;1.20;;
16689;SDS011;8458;52.220;9.884;2022-12-07T14:51:02;5.80;;;1.40;;
16689;SDS011;8458;52.220;9.884;2022-12-07T14:53:31;3.57;;;1.60;;
16689;SDS011;8458;52.220;9.884;2022-12-07T14:56:01;4.60;;;1.30;;
16689;SDS011;8458;52.220;9.884;2022-12-07T14:58:30;2.83;;;1.30;;
16689;SDS011;8458;52.220;9.884;2022-12-07T15:00:58;3.13;;;1.40;;
16689;SDS011;8458;52.220;9.884;2022-12-07T15:03:25;1.67;;;1.10;;
16689;SDS011;8458;52.220;9.884;2022-12-07T15:05:51;4.30;;;1.47;;
16689;SDS011;8458;52.220;9.884;2022-12-07T15:08:18;3.53;;;1.30;;
16689;SDS011;8458;52.220;9.884;2022-12-07T15:10:44;3.00;;;1.63;;
16689;SDS011;8458;52.220;9.884;2022-12-07T15:13:11;3.40;;;1.80;;
16689;SDS011;8458;52.220;9.884;2022-12-07T15:15:55;4.47;;;2.00;;
16689;SDS011;8458;52.220;9.884;2022-12-07T15:18:23;3.60;;;1.83;;
16689;SDS011;8458;52.220;9.884;2022-12-07T15:20:50;2.50;;;2.13;;
16689;SDS011;8458;52.220;9.884;2022-12-07T15:23:17;5.43;;;1.80;;
16689;SDS011;8458;52.220;9.884;2022-12-07T15:25:44;6.20;;;1.57;;
16689;SDS011;8458;52.220;9.884;2022-12-07T15:28:12;3.33;;;1.90;;
16689;SDS011;8458;52.220;9.884;2022-12-07T15:30:38;3.77;;;1.90;;
16689;SDS011;8458;52.220;9.884;2022-12-07T15:33:05;4.13;;;1.90;;